Terminal Aerodrome Forecast
Issued by NWS

Home | Current Version | Previous Version | Text Only | Print | Product List | Glossary On
Versions: 1 2 3 4 5 6 7 8 9 10 11 12 13 14 15 16 17 18 19 20 21 22 23
894
FTUS41 KPBZ 300845 AAA
TAFAGC
TAF AMD
KAGC 300845Z 3009/0106 03005KT 3SM BR BKN006 OVC025
      TEMPO 3009/3011 5SM BR SCT006 OVC025
     FM301100 07008KT 6SM BR VCSH OVC025
     FM301800 10012G18KT P6SM VCSH BKN035
     FM010400 10007KT P6SM VCSH BKN020=

USA.gov is the U.S. government's official web portal to all federal, state and local government web resources and services.